Custom House, Louisiana
Current Conditions -  °F | °C
As of 1:35 PM on Sunday 21 Dec 2014 (Local Time) from KVSH Reporting Station
Overcast Overcast  
Wind Chill: 57°   Ceiling: 1400
Heat Index: 57°   Visibility: 10mi
Dew Point: 48°   Wind: 3mph
Humidity: 72%   Direction: 60°ENE
Pressure: 30.04"   Gusts: NA
Location:  29.968°N, 90.065°W
Report Text: KVSH 211935Z AUTO 06003KT 10SM OVC014 14/09 A3004 RMK AO1
Loading
Personal Weather Stations






























Interactive Weather Map New forecast layout! Learn more

10-Day Weather Forecast

Advertisements
Track Severe Weather on mobile